Time;durP1;ratioP1;P1;durP2;ratioP2;P2;SDS_P1;SDS_P2;PMS_P1;PMS_P2;Temp;Humidity;BMP_temperature;BMP_pressure;BME280_temperature;BME280_humidity;BME280_pressure;Samples;Min_cycle;Max_cycle;Signal;HPM_P1;HPM_P2
2022/12/07 00:01:14;;;;;;;7.53;6.43;;;;;;;3.79;100.00;98167.81;5095716;28;20230;-71
2022/12/07 00:03:42;;;;;;;7.37;6.50;;;;;;;3.86;100.00;98163.50;5095417;28;20565;-71
2022/12/07 00:06:12;;;;;;;7.20;6.50;;;;;;;3.83;100.00;98161.22;5095639;28;20208;-71
2022/12/07 00:08:39;;;;;;;7.77;6.60;;;;;;;3.77;100.00;98171.59;5077928;28;20210;-71
2022/12/07 00:11:11;;;;;;;7.70;6.70;;;;;;;3.72;100.00;98158.16;5095753;28;20589;-71
2022/12/07 00:13:38;;;;;;;7.20;6.43;;;;;;;3.78;100.00;98158.28;5095538;28;20208;-72
2022/12/07 00:16:07;;;;;;;7.90;7.10;;;;;;;3.76;100.00;98162.88;5095069;28;20224;-71
2022/12/07 00:18:34;;;;;;;10.03;7.23;;;;;;;3.67;100.00;98163.13;5095463;28;20208;-71
2022/12/07 00:21:15;;;;;;;8.07;7.30;;;;;;;3.70;100.00;98160.97;5095323;28;20356;-71
2022/12/07 00:23:43;;;;;;;7.27;6.57;;;;;;;3.74;100.00;98162.25;5095334;28;20199;-71
2022/12/07 00:26:11;;;;;;;7.17;6.50;;;;;;;3.63;100.00;98164.47;5096123;28;20578;-71
2022/12/07 00:28:38;;;;;;;7.77;7.03;;;;;;;3.78;100.00;98160.09;5095776;28;20554;-71
2022/12/07 00:31:10;;;;;;;8.57;7.67;;;;;;;3.73;100.00;98165.06;5095133;28;20227;-71
2022/12/07 00:33:38;;;;;;;9.77;7.00;;;;;;;3.80;100.00;98160.75;5095218;28;20188;-71
2022/12/07 00:36:08;;;;;;;7.83;7.03;;;;;;;3.70;100.00;98157.53;5095000;28;20204;-71
2022/12/07 00:38:37;;;;;;;7.27;6.57;;;;;;;3.70;100.00;98162.78;5094805;28;20195;-71
2022/12/07 00:41:06;;;;;;;8.00;7.17;;;;;;;3.70;100.00;98153.06;5094881;28;20224;-71
2022/12/07 00:43:33;;;;;;;7.97;7.17;;;;;;;3.67;100.00;98161.28;5094626;28;20204;-71
2022/12/07 00:45:59;;;;;;;8.53;7.57;;;;;;;3.70;100.00;98157.53;5094620;28;20204;-71
2022/12/07 00:48:26;;;;;;;9.50;7.53;;;;;;;3.66;100.00;98154.41;5094563;28;20200;-71
2022/12/07 00:50:53;;;;;;;8.10;7.30;;;;;;;3.61;100.00;98158.56;5094555;28;20231;-71
2022/12/07 00:53:19;;;;;;;9.13;7.40;;;;;;;3.59;100.00;98155.28;5094632;28;20218;-71
2022/12/07 00:55:46;;;;;;;9.00;8.10;;;;;;;3.58;100.00;98153.66;5094725;28;20210;-71
2022/12/07 00:58:13;;;;;;;8.97;8.10;;;;;;;3.60;100.00;98159.53;5094285;28;20230;-71
2022/12/07 01:00:41;;;;;;;9.13;8.23;;;;;;;3.55;100.00;98162.69;5094430;28;20220;-71
2022/12/07 01:03:10;;;;;;;8.57;7.67;;;;;;;3.62;100.00;98161.00;5094452;28;20214;-71
2022/12/07 01:05:36;;;;;;;10.63;7.83;;;;;;;3.62;100.00;98155.75;5094478;28;20208;-71
2022/12/07 01:08:03;;;;;;;9.00;8.10;;;;;;;3.66;100.00;98154.41;5094474;28;20207;-71
2022/12/07 01:10:31;;;;;;;9.43;8.03;;;;;;;3.70;100.00;98165.41;5094374;28;20208;-71
2022/12/07 01:12:58;;;;;;;8.80;7.80;;;;;;;3.58;100.00;98164.16;5094397;28;20298;-71
2022/12/07 01:15:26;;;;;;;9.30;8.30;;;;;;;3.55;100.00;98156.63;5094342;28;20298;-72
2022/12/07 01:17:52;;;;;;;9.53;8.60;;;;;;;3.61;100.00;98161.19;5093936;28;20226;-71
2022/12/07 01:20:19;;;;;;;10.43;8.63;;;;;;;3.58;100.00;98161.53;5094670;28;20646;-71
2022/12/07 01:22:45;;;;;;;8.93;7.90;;;;;;;3.59;100.00;98163.16;5094278;28;20210;-71
2022/12/07 01:25:12;;;;;;;9.40;8.33;;;;;;;3.55;100.00;98167.13;5094197;28;20214;-71
2022/12/07 01:27:39;;;;;;;10.20;8.33;;;;;;;3.50;100.00;98161.56;5094185;28;20200;-71
2022/12/07 01:30:07;;;;;;;9.50;8.50;;;;;;;3.50;100.00;98165.03;5093808;28;20552;-71
2022/12/07 01:32:34;;;;;;;9.70;8.40;;;;;;;3.59;100.00;98171.06;5093714;28;20220;-71
2022/12/07 01:35:01;;;;;;;11.20;8.60;;;;;;;3.52;100.00;98172.75;5093756;28;20667;-71
2022/12/07 01:37:27;;;;;;;8.63;7.77;;;;;;;3.51;100.00;98171.91;5093966;28;20315;-71
2022/12/07 01:39:54;;;;;;;10.20;8.33;;;;;;;3.50;100.00;98179.97;5093676;28;20667;-71
2022/12/07 01:42:20;;;;;;;9.10;7.93;;;;;;;3.48;100.00;98182.75;5093858;28;20310;-71
2022/12/07 01:45:19;;;;;;;8.90;8.00;;;;;;;3.52;100.00;98181.44;5093844;28;20208;-71
2022/12/07 01:47:54;;;;;;;9.03;8.13;;;;;;;3.53;100.00;98179.63;5066524;28;20229;-71
2022/12/07 01:50:22;;;;;;;9.47;8.53;;;;;;;3.51;100.00;98176.34;5093490;28;20638;-71
2022/12/07 01:52:51;;;;;;;9.70;8.17;;;;;;;3.52;100.00;98176.16;5093435;28;20212;-71
2022/12/07 01:55:18;;;;;;;9.03;7.83;;;;;;;3.60;100.00;98176.13;5094591;28;20204;-71
2022/12/07 01:57:51;;;;;;;9.77;8.73;;;;;;;3.58;100.00;98177.31;5093680;28;20219;-71
2022/12/07 02:00:18;;;;;;;9.37;8.37;;;;;;;3.55;100.00;98175.00;5076246;28;20188;-71
2022/12/07 02:02:53;;;;;;;8.87;7.97;;;;;;;3.49;100.00;98180.97;5093365;28;20676;-71
2022/12/07 02:05:20;;;;;;;9.40;8.40;;;;;;;3.49;100.00;98178.34;5093652;28;20199;-71
2022/12/07 02:07:48;;;;;;;8.43;7.60;;;;;;;3.51;100.00;98176.34;5093651;28;20200;-71
2022/12/07 02:10:19;;;;;;;9.33;7.87;;;;;;;3.52;100.00;98178.81;5093600;28;20203;-71
2022/12/07 02:12:49;;;;;;;8.43;7.53;;;;;;;3.54;100.00;98176.84;5093369;28;20658;-71
2022/12/07 02:15:16;;;;;;;8.13;7.33;;;;;;;3.54;100.00;98173.38;5097841;28;20188;-71
2022/12/07 02:18:06;;;;;;;9.43;8.27;;;;;;;3.55;100.00;98173.22;5097743;28;20231;-71
2022/12/07 02:20:48;;;;;;;8.70;7.57;;;;;;;3.53;100.00;98169.91;5097673;28;20194;-71
2022/12/07 02:23:29;;;;;;;8.97;7.70;;;;;;;3.47;100.00;98167.16;5098250;28;20198;-71
2022/12/07 02:26:24;;;;;;;9.23;8.13;;;;;;;3.50;100.00;98169.44;5097618;28;20218;-71
2022/12/07 02:29:03;;;;;;;8.73;7.37;;;;;;;3.53;100.00;98162.03;5079735;28;20196;-71
2022/12/07 02:31:32;;;;;;;9.53;7.80;;;;;;;3.46;100.00;98162.91;5097535;28;20621;-72
2022/12/07 02:34:08;;;;;;;13.30;8.53;;;;;;;3.51;100.00;98163.19;5097194;28;20214;-71
2022/12/07 02:36:43;;;;;;;9.17;8.00;;;;;;;3.49;100.00;98157.31;5097387;28;20230;-71
2022/12/07 02:39:21;;;;;;;9.00;8.03;;;;;;;3.50;100.00;98158.94;5097111;28;20190;-71
2022/12/07 02:41:53;;;;;;;8.43;7.63;;;;;;;3.48;100.00;98145.16;5097008;28;20714;-71
2022/12/07 02:44:24;;;;;;;9.80;7.90;;;;;;;3.52;100.00;98155.16;5079723;28;20192;-71
2022/12/07 02:46:56;;;;;;;8.40;7.50;;;;;;;3.46;100.00;98155.00;5079223;28;20184;-71
2022/12/07 02:49:27;;;;;;;10.27;8.37;;;;;;;3.49;100.00;98152.06;5097109;28;20192;-71
2022/12/07 02:51:54;;;;;;;9.40;7.97;;;;;;;3.45;100.00;98154.22;5096770;28;20238;-71
2022/12/07 02:54:22;;;;;;;7.93;7.13;;;;;;;3.44;100.00;98142.03;5096750;28;20682;-71
2022/12/07 02:56:53;;;;;;;8.33;7.50;;;;;;;3.40;100.00;98146.03;5096652;28;20759;-71
2022/12/07 02:59:52;;;;;;;7.70;6.90;;;;;;;3.40;100.00;98139.94;5079107;28;20188;-71
2022/12/07 03:02:49;;;;;;;8.37;7.47;;;;;;;3.41;100.00;98141.56;5082346;28;20223;-71
2022/12/07 03:05:36;;;;;;;7.93;7.13;;;;;;;3.44;100.00;98133.34;5096866;28;20188;-71
2022/12/07 03:08:48;;;;;;;8.83;7.60;;;;;;;3.41;100.00;98136.31;5078925;28;20285;-71
2022/12/07 03:11:26;;;;;;;8.63;7.73;;;;;;;3.41;100.00;98133.69;5042589;28;20223;-71
2022/12/07 03:14:07;;;;;;;8.40;7.60;;;;;;;3.42;100.00;98132.69;5096478;28;20192;-71
2022/12/07 03:16:38;;;;;;;9.73;8.27;;;;;;;3.37;100.00;98140.28;5096637;28;20192;-72
2022/12/07 03:19:12;;;;;;;8.40;7.60;;;;;;;3.32;100.00;98132.94;5096318;28;20188;-71
2022/12/07 03:21:47;;;;;;;8.73;7.80;;;;;;;3.28;100.00;98134.25;5096739;28;20582;-71
2022/12/07 03:24:21;;;;;;;9.93;7.70;;;;;;;3.30;100.00;98134.09;5096234;28;20265;-71
2022/12/07 03:27:12;;;;;;;8.27;7.40;;;;;;;3.33;100.00;98131.09;5096532;28;20190;-71
2022/12/07 03:29:48;;;;;;;8.37;7.37;;;;;;;3.35;100.00;98123.88;5096422;28;20184;-71
2022/12/07 03:32:42;;;;;;;8.50;7.23;;;;;;;3.31;100.00;98123.41;5096341;28;20234;-71
2022/12/07 03:35:17;;;;;;;8.23;7.40;;;;;;;3.35;100.00;98124.69;5087759;28;20211;-71
2022/12/07 03:37:54;;;;;;;8.70;7.80;;;;;;;3.33;100.00;98120.59;5078292;28;20208;-71
2022/12/07 03:40:45;;;;;;;7.30;6.60;;;;;;;3.30;100.00;98116.50;5096127;28;20192;-72
2022/12/07 03:43:12;;;;;;;8.90;7.40;;;;;;;3.29;100.00;98124.56;5096117;28;20227;-71
2022/12/07 03:45:46;;;;;;;7.77;7.07;;;;;;;3.32;100.00;98126.84;5096028;28;20210;-71
2022/12/07 03:48:29;;;;;;;7.00;6.30;;;;;;;3.31;100.00;98125.22;5096038;28;20210;-71
2022/12/07 03:51:37;;;;;;;7.93;7.13;;;;;;;3.25;100.00;98121.44;5095525;28;20766;-71
2022/12/07 03:54:09;;;;;;;9.37;6.63;;;;;;;3.24;100.00;98121.63;5096028;28;20218;-71
2022/12/07 03:56:36;;;;;;;7.77;6.50;;;;;;;3.19;100.00;98123.94;5095802;28;20210;-71
2022/12/07 03:59:02;;;;;;;7.57;6.77;;;;;;;3.19;100.00;98114.25;5095837;28;20242;-71
2022/12/07 04:01:29;;;;;;;7.87;6.50;;;;;;;3.17;100.00;98120.69;5095358;28;20721;-71
2022/12/07 04:03:55;;;;;;;7.80;6.87;;;;;;;3.15;100.00;98118.22;5095579;28;20210;-71
2022/12/07 04:06:21;;;;;;;7.07;6.37;;;;;;;3.14;100.00;98119.22;5095600;28;20204;-71
2022/12/07 04:08:48;;;;;;;8.30;6.30;;;;;;;3.05;100.00;98114.16;5095524;28;20222;-72
2022/12/07 04:11:14;;;;;;;8.13;6.67;;;;;;;2.95;100.00;98106.50;5095483;28;20224;-72
2022/12/07 04:16:24;;;;;;;6.60;6.00;;;;;;;2.76;100.00;98111.31;5095299;28;20167;-71
2022/12/07 04:18:50;;;;;;;7.83;7.03;;;;;;;2.71;100.00;98101.31;5095253;28;20262;-71
2022/12/07 04:21:17;;;;;;;7.93;7.13;;;;;;;2.71;100.00;98100.50;5095197;28;20223;-71
2022/12/07 04:23:43;;;;;;;8.20;6.60;;;;;;;2.60;100.00;98091.19;5095056;28;20232;-71
2022/12/07 04:26:10;;;;;;;5.93;5.33;;;;;;;2.76;100.00;98096.38;5094929;28;20310;-71
2022/12/07 04:28:36;;;;;;;8.20;6.27;;;;;;;2.80;100.00;98091.63;5095207;28;20200;-72
2022/12/07 04:31:02;;;;;;;6.93;6.27;;;;;;;2.76;100.00;98090.31;5095043;28;20228;-72
2022/12/07 04:33:29;;;;;;;6.93;6.23;;;;;;;2.77;100.00;98078.81;5094922;28;20207;-71
2022/12/07 04:35:55;;;;;;;7.33;6.07;;;;;;;2.73;100.00;98077.53;5094204;28;20210;-72
2022/12/07 04:38:21;;;;;;;6.93;6.23;;;;;;;2.76;100.00;98075.38;5094672;28;20219;-72
2022/12/07 04:40:48;;;;;;;6.43;5.33;;;;;;;2.77;100.00;98081.44;5094751;28;20220;-72
2022/12/07 04:43:14;;;;;;;6.60;6.00;;;;;;;2.82;100.00;98066.00;5094723;28;20207;-71
2022/12/07 04:45:40;;;;;;;5.93;5.33;;;;;;;2.81;100.00;98067.84;5094477;28;20204;-72
2022/12/07 04:48:07;;;;;;;6.03;5.43;;;;;;;2.86;100.00;98067.31;5095175;28;20666;-72
2022/12/07 04:50:33;;;;;;;7.20;6.00;;;;;;;2.81;100.00;98065.22;5094496;28;20200;-71
2022/12/07 04:53:00;;;;;;;7.47;6.77;;;;;;;2.73;100.00;98053.91;5094333;28;20188;-72
2022/12/07 04:55:26;;;;;;;9.40;7.10;;;;;;;2.75;100.00;98062.44;5094333;28;20211;-72
2022/12/07 04:57:52;;;;;;;8.30;7.40;;;;;;;2.73;100.00;98069.66;5093965;28;20694;-72
2022/12/07 05:00:19;;;;;;;8.20;7.37;;;;;;;2.76;100.00;98071.94;5094450;28;20542;-72
2022/12/07 05:02:45;;;;;;;8.10;6.77;;;;;;;2.87;100.00;98079.44;5094247;28;20204;-72
2022/12/07 05:05:12;;;;;;;11.10;7.67;;;;;;;2.86;100.00;98080.44;5093940;28;20666;-71
2022/12/07 05:07:38;;;;;;;8.70;6.83;;;;;;;2.84;100.00;98087.66;5094243;28;20207;-72
2022/12/07 05:10:06;;;;;;;7.17;5.80;;;;;;;2.89;100.00;98082.72;5094649;28;20211;-71
2022/12/07 05:12:32;;;;;;;7.47;6.60;;;;;;;2.83;100.00;98088.63;5093999;28;20228;-72
2022/12/07 05:14:58;;;;;;;7.80;6.47;;;;;;;2.82;100.00;98100.13;5094235;28;20294;-71
2022/12/07 05:17:25;;;;;;;6.23;5.43;;;;;;;3.01;100.00;98099.72;5093760;28;20224;-72
2022/12/07 05:19:51;;;;;;;7.10;5.50;;;;;;;2.89;100.00;98087.97;5094134;28;20210;-71
2022/12/07 05:22:17;;;;;;;8.27;4.63;;;;;;;2.98;100.00;98090.38;5093735;28;20228;-71
2022/12/07 05:24:44;;;;;;;7.47;5.30;;;;;;;3.05;100.00;98095.78;5093581;28;20204;-71
2022/12/07 05:27:10;;;;;;;6.80;5.57;;;;;;;3.01;100.00;98099.72;5093781;28;20200;-72
2022/12/07 05:29:36;;;;;;;7.53;5.87;;;;;;;2.99;100.00;98112.22;5093683;28;20231;-72
2022/12/07 05:32:03;;;;;;;7.17;6.40;;;;;;;2.95;100.00;98103.03;5093467;28;20234;-71
2022/12/07 05:34:29;;;;;;;7.50;6.10;;;;;;;2.77;100.00;98094.56;5093541;28;20210;-72
2022/12/07 05:36:56;;;;;;;8.67;6.40;;;;;;;2.81;100.00;98103.75;5093152;28;20560;-71
2022/12/07 05:39:22;;;;;;;7.80;6.77;;;;;;;2.65;100.00;98103.78;5093335;28;20210;-72
2022/12/07 05:44:32;;;;;;;7.77;6.97;;;;;;;2.59;100.00;98115.78;5093436;28;20178;-71
2022/12/07 05:46:58;;;;;;;8.73;7.47;;;;;;;2.69;100.00;98110.34;5093231;28;20200;-71
2022/12/07 05:49:25;;;;;;;10.53;8.30;;;;;;;2.71;100.00;98109.19;5093494;28;20204;-71
2022/12/07 05:51:51;;;;;;;9.77;8.00;;;;;;;2.82;100.00;98116.72;5093090;28;20232;-71
2022/12/07 05:54:18;;;;;;;8.87;6.83;;;;;;;2.80;100.00;98117.88;5093308;28;20204;-72
2022/12/07 05:56:44;;;;;;;9.77;7.90;;;;;;;2.78;100.00;98114.56;5093521;28;20204;-71
2022/12/07 05:59:27;;;;;;;8.33;7.33;;;;;;;2.75;100.00;98114.94;5093211;28;20234;-71
2022/12/07 06:01:59;;;;;;;11.03;6.77;;;;;;;2.73;100.00;98115.09;5092709;28;20702;-71
2022/12/07 06:04:28;;;;;;;10.53;7.80;;;;;;;2.64;100.00;98102.16;5093140;28;20200;-72
2022/12/07 06:06:55;;;;;;;10.00;7.27;;;;;;;2.67;100.00;98109.69;5093330;28;20214;-72
2022/12/07 06:09:23;;;;;;;12.20;7.87;;;;;;;2.64;100.00;98102.16;5093342;28;20200;-71
2022/12/07 06:14:34;;;;;;;10.57;6.90;;;;;;;2.60;100.00;98112.19;5092574;28;20243;-71
2022/12/07 06:17:00;;;;;;;8.33;6.97;;;;;;;2.59;100.00;98123.66;5093671;28;20204;-72
2022/12/07 06:19:27;;;;;;;8.53;7.47;;;;;;;2.63;100.00;98122.34;5092463;28;20219;-72
2022/12/07 06:21:54;;;;;;;7.67;6.73;;;;;;;2.66;100.00;98116.75;5092321;28;20223;-71
2022/12/07 06:24:21;;;;;;;8.20;6.93;;;;;;;2.63;100.00;98121.53;5092600;28;20204;-71
2022/12/07 06:26:47;;;;;;;7.63;6.37;;;;;;;2.58;100.00;98115.97;5092775;28;20203;-71
2022/12/07 06:29:14;;;;;;;8.00;7.20;;;;;;;2.60;100.00;98120.06;5092844;28;20226;-71
2022/12/07 06:31:40;;;;;;;9.40;7.17;;;;;;;2.65;100.00;98115.13;5092400;28;20223;-71
2022/12/07 06:34:11;;;;;;;9.10;6.73;;;;;;;2.72;100.00;98120.50;5092653;28;20218;-71
2022/12/07 06:36:38;;;;;;;7.87;6.67;;;;;;;2.62;100.00;98114.63;5092451;28;20239;-71
2022/12/07 06:39:05;;;;;;;7.20;6.50;;;;;;;2.65;100.00;98112.50;5091884;28;20639;-72
2022/12/07 06:41:31;;;;;;;6.87;5.60;;;;;;;2.70;100.00;98112.81;5092756;28;20368;-71
2022/12/07 06:43:57;;;;;;;6.00;5.37;;;;;;;2.77;100.00;98102.44;5092535;28;20231;-71
2022/12/07 06:46:24;;;;;;;6.93;5.77;;;;;;;2.69;100.00;98105.09;5092612;28;20210;-71
2022/12/07 06:48:51;;;;;;;7.50;5.80;;;;;;;2.66;100.00;98108.88;5092461;28;20207;-71
2022/12/07 06:51:17;;;;;;;7.73;6.40;;;;;;;2.63;100.00;98119.72;5092229;28;20595;-71
2022/12/07 06:53:44;;;;;;;6.57;5.00;;;;;;;2.63;100.00;98121.53;5092634;28;20204;-71
2022/12/07 06:56:10;;;;;;;6.70;5.73;;;;;;;2.61;100.00;98118.22;5092413;28;20199;-71
2022/12/07 06:58:36;;;;;;;6.03;5.43;;;;;;;2.66;100.00;98121.19;5092218;28;20228;-71
2022/12/07 07:01:03;;;;;;;6.73;5.23;;;;;;;2.62;100.00;98125.94;5095793;28;20597;-71
2022/12/07 07:03:29;;;;;;;5.80;5.20;;;;;;;2.67;100.00;98120.19;5096236;28;20203;-71
2022/12/07 07:05:56;;;;;;;5.00;4.50;;;;;;;2.70;100.00;98120.69;5096490;28;20291;-71
2022/12/07 07:08:22;;;;;;;5.13;4.50;;;;;;;2.72;100.00;98133.63;5096257;28;20202;-71
2022/12/07 07:10:49;;;;;;;6.70;5.20;;;;;;;2.70;100.00;98127.72;5095847;28;20656;-71
2022/12/07 07:13:15;;;;;;;5.90;4.40;;;;;;;2.74;100.00;98129.03;5095721;28;20203;-71
2022/12/07 07:15:41;;;;;;;5.40;4.63;;;;;;;2.76;100.00;98129.69;5095672;28;20210;-71
2022/12/07 07:18:08;;;;;;;5.53;5.03;;;;;;;2.77;100.00;98133.94;5095746;28;20266;-71
2022/12/07 07:20:35;;;;;;;7.13;4.73;;;;;;;2.76;100.00;98132.31;5095500;28;20291;-71
2022/12/07 07:23:01;;;;;;;4.77;4.30;;;;;;;2.83;100.00;98141.16;5095635;28;20659;-71
2022/12/07 07:25:28;;;;;;;4.80;4.30;;;;;;;2.87;100.00;98139.81;5095620;28;20677;-71
2022/12/07 07:27:54;;;;;;;5.20;4.70;;;;;;;2.89;100.00;98137.88;5095404;28;20290;-72
2022/12/07 07:30:21;;;;;;;4.10;3.70;;;;;;;2.94;100.00;98136.34;5095360;28;20204;-71
2022/12/07 07:32:47;;;;;;;4.20;3.77;;;;;;;2.89;100.00;98135.25;5095900;28;20206;-72
2022/12/07 07:35:14;;;;;;;7.20;3.93;;;;;;;2.92;100.00;98143.59;5094221;28;20210;-72
2022/12/07 07:37:41;;;;;;;5.83;4.53;;;;;;;2.96;100.00;98144.06;5093101;28;20758;-72
2022/12/07 07:40:09;;;;;;;5.07;4.50;;;;;;;2.95;100.00;98150.31;5093081;28;20210;-72
2022/12/07 07:42:35;;;;;;;4.20;3.80;;;;;;;3.03;100.00;98150.28;5093640;28;20223;-72
2022/12/07 07:45:02;;;;;;;4.37;3.80;;;;;;;3.05;100.00;98143.03;5093178;28;20289;-72
2022/12/07 07:47:28;;;;;;;4.17;3.63;;;;;;;3.06;100.00;98144.69;5093263;28;20214;-72
2022/12/07 07:49:55;;;;;;;4.30;3.90;;;;;;;3.08;100.00;98156.66;5093969;28;20215;-72
2022/12/07 07:52:21;;;;;;;6.33;4.10;;;;;;;3.12;100.00;98150.06;5095018;28;20710;-72
2022/12/07 07:54:48;;;;;;;4.00;3.40;;;;;;;3.26;99.40;98153.81;5095936;28;20204;-72
2022/12/07 07:57:14;;;;;;;4.63;3.27;;;;;;;3.28;99.88;98150.03;5095343;28;20333;-72
2022/12/07 07:59:41;;;;;;;3.80;3.50;;;;;;;3.31;100.00;98152.31;5094992;28;20226;-72
2022/12/07 08:02:14;;;;;;;4.13;3.73;;;;;;;3.30;99.06;98152.47;5094675;28;20644;-72
2022/12/07 08:04:40;;;;;;;4.60;3.57;;;;;;;3.37;100.00;98163.94;5095420;28;20283;-72
2022/12/07 08:07:07;;;;;;;4.03;3.60;;;;;;;3.33;97.98;98158.19;5094782;28;20211;-72
2022/12/07 08:09:33;;;;;;;4.77;3.73;;;;;;;3.32;100.00;98156.56;5094442;28;20698;-72
2022/12/07 08:12:00;;;;;;;6.07;3.50;;;;;;;3.43;96.94;98158.00;5093719;28;20234;-72
2022/12/07 08:14:28;;;;;;;4.20;3.80;;;;;;;3.51;100.00;98161.41;5094938;28;20212;-72
2022/12/07 08:16:54;;;;;;;3.60;3.20;;;;;;;3.49;97.67;98154.69;5094919;28;20204;-71
2022/12/07 08:19:21;;;;;;;5.33;3.33;;;;;;;3.58;98.42;98154.47;5095022;28;20560;-71
2022/12/07 08:21:47;;;;;;;3.37;3.07;;;;;;;3.55;98.01;98152.19;5095078;28;20329;-72
2022/12/07 08:24:14;;;;;;;3.10;2.80;;;;;;;3.68;91.44;98162.13;5094708;28;20204;-71
2022/12/07 08:26:41;;;;;;;4.93;3.10;;;;;;;3.73;94.74;98162.44;5094712;28;20618;-72
2022/12/07 08:29:07;;;;;;;4.50;3.43;;;;;;;3.74;91.90;98158.78;5094798;28;20291;-72
2022/12/07 08:31:34;;;;;;;3.47;3.00;;;;;;;3.69;91.59;98163.75;5094919;28;20224;-72
2022/12/07 08:34:00;;;;;;;4.10;3.47;;;;;;;3.76;95.40;98164.72;5094513;28;20210;-72
2022/12/07 08:36:27;;;;;;;4.73;3.53;;;;;;;3.91;92.76;98169.06;5094629;28;20206;-72
2022/12/07 08:38:55;;;;;;;4.17;3.77;;;;;;;3.91;91.18;98170.84;5094628;28;20246;-72
2022/12/07 08:41:21;;;;;;;5.53;3.40;;;;;;;4.29;88.59;98172.56;5094605;28;20593;-72
2022/12/07 08:43:48;;;;;;;4.30;3.83;;;;;;;4.12;87.80;98171.06;5094642;28;20208;-72
2022/12/07 08:46:22;;;;;;;6.47;3.63;;;;;;;4.11;87.62;98166.78;5094237;28;20208;-72
2022/12/07 08:49:02;;;;;;;8.27;4.03;;;;;;;4.10;88.17;98173.03;5094257;28;20184;-72
2022/12/07 08:51:29;;;;;;;5.47;3.77;;;;;;;4.06;90.69;98167.31;5093948;28;20318;-72
2022/12/07 08:53:56;;;;;;;5.67;4.10;;;;;;;4.19;89.10;98171.97;5093980;28;20689;-72
2022/12/07 08:56:23;;;;;;;4.93;4.40;;;;;;;4.22;90.02;98166.38;5094862;28;20204;-72
2022/12/07 08:58:50;;;;;;;5.00;3.70;;;;;;;4.24;87.75;98174.88;5093767;28;20686;-72
2022/12/07 09:01:16;;;;;;;5.17;3.97;;;;;;;4.20;88.47;98171.81;5093647;28;20228;-72
2022/12/07 09:03:42;;;;;;;4.43;3.63;;;;;;;4.21;90.01;98168.16;5094043;28;20200;-72
2022/12/07 09:06:09;;;;;;;6.83;3.47;;;;;;;4.38;89.08;98172.31;5094317;28;20543;-72
2022/12/07 09:08:44;;;;;;;5.70;3.87;;;;;;;4.39;90.14;98173.94;5093789;28;20211;-72
2022/12/07 09:11:10;;;;;;;3.73;3.13;;;;;;;4.31;84.86;98171.41;5094105;28;20314;-72
2022/12/07 09:13:36;;;;;;;3.60;3.30;;;;;;;4.43;85.36;98171.81;5093770;28;20669;-72
2022/12/07 09:16:03;;;;;;;4.27;3.27;;;;;;;4.47;84.22;98173.09;5094028;28;20199;-72
2022/12/07 09:18:29;;;;;;;4.07;3.60;;;;;;;4.60;84.59;98173.25;5093614;28;20220;-72
2022/12/07 09:20:57;;;;;;;3.73;3.37;;;;;;;4.65;90.65;98168.31;5094059;28;20223;-72
2022/12/07 09:23:23;;;;;;;3.33;3.03;;;;;;;4.60;87.01;98165.38;5093689;28;20216;-72
2022/12/07 09:25:50;;;;;;;3.77;3.40;;;;;;;4.72;87.73;98171.84;5093470;28;20674;-72
2022/12/07 09:28:16;;;;;;;4.53;3.13;;;;;;;4.73;86.01;98165.56;5093470;28;20207;-72
2022/12/07 09:30:50;;;;;;;3.50;2.67;;;;;;;4.77;85.57;98172.13;5093413;28;20223;-72
2022/12/07 09:33:16;;;;;;;2.63;2.43;;;;;;;4.63;83.20;98168.47;5093371;28;20204;-72
2022/12/07 09:35:47;;;;;;;4.23;2.53;;;;;;;4.74;84.05;98164.59;5093458;28;20204;-72
2022/12/07 09:38:13;;;;;;;3.40;2.77;;;;;;;4.67;85.13;98163.66;5093535;28;20228;-72
2022/12/07 09:40:40;;;;;;;3.27;2.83;;;;;;;4.70;85.21;98169.38;5093274;28;20277;-72
2022/12/07 09:43:15;;;;;;;7.00;3.00;;;;;;;4.88;86.12;98164.59;5093464;28;20290;-72
2022/12/07 09:45:42;;;;;;;5.43;3.03;;;;;;;4.99;85.29;98165.97;5075825;28;20188;-72
2022/12/07 09:48:31;;;;;;;3.57;3.27;;;;;;;4.93;86.85;98169.34;5093182;28;20214;-72
2022/12/07 09:51:00;;;;;;;4.70;3.00;;;;;;;4.86;84.97;98160.50;5093350;28;20235;-72
2022/12/07 09:53:29;;;;;;;5.93;2.50;;;;;;;4.99;86.13;98155.44;5093021;28;20214;-72
2022/12/07 09:55:55;;;;;;;4.83;3.47;;;;;;;4.94;85.05;98153.38;5093417;28;20204;-72
2022/12/07 09:58:27;;;;;;;3.97;2.87;;;;;;;5.06;87.43;98161.63;5092984;28;20227;-72
2022/12/07 10:01:00;;;;;;;7.87;2.90;;;;;;;5.12;86.52;98151.19;5093097;28;20250;-72
2022/12/07 10:03:29;;;;;;;4.13;3.13;;;;;;;5.04;87.87;98145.16;5093927;28;20214;-72
2022/12/07 10:05:56;;;;;;;3.07;2.60;;;;;;;5.10;86.24;98142.63;5092935;28;20731;-72
2022/12/07 10:08:23;;;;;;;4.00;2.57;;;;;;;5.21;87.49;98139.50;5093262;28;20298;-72
2022/12/07 10:10:52;;;;;;;3.20;2.90;;;;;;;5.05;86.97;98133.63;5093247;28;20235;-72
2022/12/07 10:13:35;;;;;;;3.87;2.90;;;;;;;4.87;88.14;98128.72;5092935;28;20299;-71
2022/12/07 10:16:02;;;;;;;4.13;3.20;;;;;;;5.03;86.42;98136.47;5093581;28;20198;-72
2022/12/07 10:18:35;;;;;;;4.43;3.40;;;;;;;5.13;89.79;98131.72;5093277;28;20224;-72
2022/12/07 10:21:13;;;;;;;5.97;2.90;;;;;;;5.01;87.14;98134.97;5093243;28;20307;-72
2022/12/07 10:23:43;;;;;;;3.17;2.60;;;;;;;5.12;87.38;98126.63;5093132;28;20200;-72
2022/12/07 10:26:29;;;;;;;3.70;3.10;;;;;;;5.06;87.59;98124.75;5092872;28;20208;-72
2022/12/07 10:28:59;;;;;;;5.47;3.47;;;;;;;4.97;87.00;98126.63;5092678;28;20549;-72
2022/12/07 10:31:26;;;;;;;4.37;3.30;;;;;;;5.20;87.76;98126.53;5093087;28;20228;-72
2022/12/07 10:33:56;;;;;;;4.23;3.60;;;;;;;5.00;87.85;98133.34;5093118;28;20204;-72
2022/12/07 10:36:37;;;;;;;3.70;3.33;;;;;;;4.88;89.42;98127.72;5096961;28;20203;-72
2022/12/07 10:39:11;;;;;;;4.40;4.00;;;;;;;4.92;88.94;98122.91;5097278;28;20630;-72
2022/12/07 10:41:54;;;;;;;5.47;3.70;;;;;;;4.82;89.24;98130.25;5096913;28;20314;-72
2022/12/07 10:44:31;;;;;;;3.60;3.30;;;;;;;4.75;90.53;98122.25;5097058;28;20210;-72
2022/12/07 10:47:19;;;;;;;6.57;3.73;;;;;;;4.79;92.26;98117.47;5096908;28;20188;-71
2022/12/07 10:50:12;;;;;;;7.57;3.70;;;;;;;4.86;92.26;98119.19;5097264;28;20188;-72
2022/12/07 10:52:48;;;;;;;6.30;3.87;;;;;;;4.87;94.53;98114.72;5095958;28;20236;-72
2022/12/07 10:55:21;;;;;;;5.23;3.50;;;;;;;4.78;93.86;98111.38;5095980;28;20659;-72
2022/12/07 10:58:22;;;;;;;5.67;3.43;;;;;;;4.82;95.05;98102.13;5096401;28;20204;-72
2022/12/07 11:01:11;;;;;;;3.60;3.30;;;;;;;4.80;95.44;98106.72;5070337;28;20223;-72
2022/12/07 11:04:18;;;;;;;6.17;3.00;;;;;;;4.80;98.57;98108.56;5096603;28;20198;-71
2022/12/07 11:07:02;;;;;;;2.50;2.00;;;;;;;4.78;100.00;98105.28;5096495;28;20199;-71
2022/12/07 11:09:57;;;;;;;2.63;2.10;;;;;;;4.84;100.00;98092.19;5096389;28;20188;-71
2022/12/07 11:12:51;;;;;;;2.80;2.00;;;;;;;4.87;100.00;98088.38;5096300;28;20224;-71
2022/12/07 11:15:25;;;;;;;5.13;2.87;;;;;;;4.82;99.77;98088.94;5096068;28;20316;-72
2022/12/07 11:18:01;;;;;;;3.30;2.23;;;;;;;4.93;99.86;98091.13;5096703;28;20192;-72
2022/12/07 11:20:37;;;;;;;3.07;2.53;;;;;;;4.90;99.10;98088.03;5096073;28;20227;-72
2022/12/07 11:23:13;;;;;;;4.40;2.30;;;;;;;4.96;100.00;98087.28;5095972;28;20192;-71
2022/12/07 11:26:02;;;;;;;4.53;2.80;;;;;;;5.11;100.00;98072.31;5096280;28;20295;-71
2022/12/07 11:29:10;;;;;;;3.63;2.23;;;;;;;5.00;99.83;98070.94;5095580;28;20200;-72
2022/12/07 11:32:04;;;;;;;5.53;2.13;;;;;;;5.09;99.50;98069.84;5033555;28;20225;-71
2022/12/07 11:35:03;;;;;;;2.77;2.17;;;;;;;5.11;100.00;98069.69;5087251;28;20238;-71
2022/12/07 11:37:34;;;;;;;2.90;2.13;;;;;;;4.85;100.00;98071.97;5090261;28;20295;-71
2022/12/07 11:40:06;;;;;;;3.67;2.40;;;;;;;5.12;100.00;98069.50;5095614;28;20219;-71
2022/12/07 11:42:42;;;;;;;2.83;2.63;;;;;;;4.89;100.00;98063.50;5095206;28;20226;-71
2022/12/07 11:45:20;;;;;;;2.83;2.60;;;;;;;4.67;100.00;98071.50;5095906;28;20627;-71
2022/12/07 11:47:52;;;;;;;3.47;2.80;;;;;;;4.67;100.00;98068.88;5096320;28;20183;-71
2022/12/07 11:50:19;;;;;;;4.17;2.90;;;;;;;4.61;100.00;98069.63;5095698;28;20215;-72
2022/12/07 11:53:23;;;;;;;3.97;3.40;;;;;;;4.69;100.00;98059.81;5095181;28;20219;-71
2022/12/07 11:56:21;;;;;;;4.23;3.07;;;;;;;4.68;100.00;98058.16;5095527;28;20294;-71
2022/12/07 11:59:07;;;;;;;5.17;4.10;;;;;;;4.54;100.00;98059.00;5094812;28;20219;-71
2022/12/07 12:01:39;;;;;;;4.83;3.80;;;;;;;4.71;100.00;98062.25;5095385;28;20315;-71